createdAt,value
2022-08-14T00:02:03.717Z,29.80
2022-08-14T00:04:34.496Z,29.73
2022-08-14T00:07:06.935Z,30.11
2022-08-14T00:09:40.009Z,30.26
2022-08-14T00:12:24.737Z,30.55
2022-08-14T00:15:00.846Z,30.25
2022-08-14T00:17:37.888Z,29.91
2022-08-14T00:20:06.945Z,29.55
2022-08-14T00:22:56.016Z,30.38
2022-08-14T00:25:22.286Z,30.07
2022-08-14T00:27:49.540Z,30.18
2022-08-14T00:30:22.224Z,30.22
2022-08-14T00:33:00.738Z,30.96
2022-08-14T00:36:34.013Z,30.41
2022-08-14T00:38:17.720Z,30.64
2022-08-14T00:40:46.382Z,30.68
2022-08-14T00:43:14.970Z,30.70
2022-08-14T00:45:42.741Z,30.71
2022-08-14T00:48:10.604Z,30.29
2022-08-14T00:50:38.223Z,30.22
2022-08-14T00:53:10.593Z,30.02
2022-08-14T00:55:41.443Z,30.58
2022-08-14T00:58:33.088Z,30.80
2022-08-14T01:01:05.426Z,30.95
2022-08-14T01:03:36.248Z,30.61
2022-08-14T01:06:07.176Z,30.83
2022-08-14T01:08:51.164Z,30.98
2022-08-14T01:11:22.488Z,30.95
2022-08-14T01:13:56.105Z,31.21
2022-08-14T01:16:31.358Z,30.70
2022-08-14T01:19:19.736Z,30.97
2022-08-14T01:21:52.954Z,30.79
2022-08-14T01:24:28.775Z,30.79
2022-08-14T01:27:00.634Z,31.03
2022-08-14T01:29:58.885Z,31.16
2022-08-14T01:32:23.339Z,31.19
2022-08-14T01:35:19.081Z,31.23
2022-08-14T01:37:44.479Z,31.33
2022-08-14T01:40:15.501Z,31.21
2022-08-14T01:42:47.510Z,31.07
2022-08-14T01:45:17.870Z,31.76
2022-08-14T01:48:03.327Z,31.55
2022-08-14T01:50:33.707Z,31.38
2022-08-14T01:53:01.712Z,31.13
2022-08-14T01:55:32.531Z,31.74
2022-08-14T01:58:18.097Z,31.71
2022-08-14T02:00:48.051Z,31.68
2022-08-14T02:03:16.261Z,31.57
2022-08-14T02:05:43.966Z,31.85
2022-08-14T02:08:11.341Z,31.80
2022-08-14T02:10:46.068Z,31.80
2022-08-14T02:13:16.094Z,31.84
2022-08-14T02:15:44.176Z,31.48
2022-08-14T02:18:11.694Z,31.48
2022-08-14T02:20:39.932Z,31.41
2022-08-14T02:23:08.189Z,31.65
2022-08-14T02:25:36.125Z,31.76
2022-08-14T02:28:22.182Z,31.90
2022-08-14T02:30:52.376Z,32.02
2022-08-14T02:33:21.371Z,31.98
2022-08-14T02:35:53.415Z,31.69
2022-08-14T02:38:35.153Z,31.28
2022-08-14T02:41:09.053Z,31.61
2022-08-14T02:43:48.270Z,31.93
2022-08-14T02:46:20.653Z,31.93
2022-08-14T02:49:03.350Z,31.79
2022-08-14T02:51:34.146Z,31.47
2022-08-14T02:54:01.938Z,31.67
2022-08-14T02:57:16.053Z,31.77
2022-08-14T02:59:19.048Z,32.09
2022-08-14T03:01:54.875Z,32.20
2022-08-14T03:04:22.830Z,31.53
2022-08-14T03:07:06.589Z,31.44
2022-08-14T03:10:27.393Z,30.87
2022-08-14T03:12:34.960Z,31.26
2022-08-14T03:15:13.754Z,31.47
2022-08-14T03:17:57.146Z,31.33
2022-08-14T03:20:28.403Z,31.07
2022-08-14T03:23:00.082Z,30.52
2022-08-14T03:25:31.689Z,30.68
2022-08-14T03:28:03.845Z,31.23
2022-08-14T03:30:39.105Z,30.96
2022-08-14T03:33:10.268Z,30.85
2022-08-14T03:35:59.905Z,30.60
2022-08-14T03:39:14.095Z,30.14
2022-08-14T03:41:16.788Z,30.37
2022-08-14T03:43:44.504Z,30.08
2022-08-14T03:46:38.936Z,30.09
2022-08-14T03:49:03.093Z,30.26
2022-08-14T03:51:30.394Z,30.12
2022-08-14T03:53:58.477Z,29.55
2022-08-14T03:56:27.284Z,29.86
2022-08-14T03:58:56.334Z,29.83
2022-08-14T04:01:29.346Z,30.17
2022-08-14T04:04:09.818Z,30.17
2022-08-14T04:06:44.528Z,29.96
2022-08-14T04:09:16.901Z,30.00
2022-08-14T04:11:45.377Z,30.35
2022-08-14T04:14:16.597Z,29.77
2022-08-14T04:16:46.452Z,29.98
2022-08-14T04:19:18.863Z,30.29
2022-08-14T04:22:03.087Z,30.14
2022-08-14T04:24:38.185Z,30.00
2022-08-14T04:27:10.661Z,30.35
2022-08-14T04:29:42.727Z,31.17
2022-08-14T04:32:57.723Z,30.54
2022-08-14T04:35:00.710Z,30.36
2022-08-14T04:37:46.609Z,30.52
2022-08-14T04:40:40.475Z,30.36
2022-08-14T04:43:26.768Z,30.11
2022-08-14T04:46:08.083Z,30.19
2022-08-14T04:48:43.095Z,30.43
2022-08-14T04:51:12.663Z,30.39
2022-08-14T04:53:43.700Z,30.54
2022-08-14T04:56:31.366Z,29.43
2022-08-14T04:59:02.296Z,29.87
2022-08-14T05:01:39.622Z,29.03
2022-08-14T05:04:08.792Z,29.74
2022-08-14T05:06:43.541Z,28.76
2022-08-14T05:09:14.160Z,29.49
2022-08-14T05:11:42.443Z,29.48
2022-08-14T05:14:16.691Z,29.90
2022-08-14T05:17:02.076Z,29.16
2022-08-14T05:19:32.053Z,28.80
2022-08-14T05:22:16.100Z,29.54
2022-08-14T05:24:48.637Z,29.33
2022-08-14T05:27:22.890Z,28.85
2022-08-14T05:29:53.623Z,28.74
2022-08-14T05:32:23.465Z,29.09
2022-08-14T05:34:58.133Z,28.65
2022-08-14T05:37:27.342Z,28.51
2022-08-14T05:39:55.700Z,28.86
2022-08-14T05:42:27.261Z,29.22
2022-08-14T05:44:59.938Z,29.05
2022-08-14T05:47:28.604Z,29.26
2022-08-14T05:49:57.661Z,29.05
2022-08-14T05:52:38.441Z,28.87
2022-08-14T05:55:12.374Z,28.70
2022-08-14T05:57:46.643Z,28.55
2022-08-14T06:00:24.968Z,28.17
2022-08-14T06:02:57.069Z,28.84
2022-08-14T06:05:24.721Z,28.66
2022-08-14T06:07:57.524Z,28.51
2022-08-14T06:10:25.337Z,27.80
2022-08-14T06:12:57.379Z,27.92
2022-08-14T06:15:30.104Z,28.01
2022-08-14T06:17:59.199Z,27.53
2022-08-14T06:20:28.236Z,27.83
2022-08-14T06:22:57.078Z,28.13
2022-08-14T06:25:24.991Z,27.97
2022-08-14T06:27:53.558Z,27.78
2022-08-14T06:30:23.155Z,27.32
2022-08-14T06:32:52.848Z,27.35
2022-08-14T06:35:21.166Z,27.22
2022-08-14T06:37:56.749Z,27.33
2022-08-14T06:40:29.031Z,26.93
2022-08-14T06:43:00.323Z,27.84
2022-08-14T06:45:31.572Z,28.00
2022-08-14T06:47:59.413Z,28.02
2022-08-14T06:50:28.622Z,27.57
2022-08-14T06:52:58.738Z,27.48
2022-08-14T06:55:28.266Z,27.26
2022-08-14T06:57:57.743Z,27.83
2022-08-14T07:00:26.928Z,27.66
2022-08-14T07:03:14.301Z,27.36
2022-08-14T07:05:55.603Z,27.37
2022-08-14T07:08:31.601Z,27.20
2022-08-14T07:11:01.112Z,26.69
2022-08-14T07:13:30.564Z,27.48
2022-08-14T07:16:00.497Z,26.59
2022-08-14T07:18:30.107Z,27.49
2022-08-14T07:20:58.791Z,27.02
2022-08-14T07:23:26.662Z,26.92
2022-08-14T07:25:55.360Z,26.36
2022-08-14T07:28:28.788Z,26.74
2022-08-14T07:31:04.190Z,26.75
2022-08-14T07:33:34.902Z,26.36
2022-08-14T07:36:09.029Z,26.00
2022-08-14T07:38:52.346Z,27.16
2022-08-14T07:41:19.925Z,25.79
2022-08-14T07:43:55.203Z,26.08
2022-08-14T07:46:28.447Z,26.44
2022-08-14T07:48:57.152Z,26.28
2022-08-14T07:51:24.588Z,26.81
2022-08-14T07:53:57.110Z,25.96
2022-08-14T07:56:47.673Z,26.09
2022-08-14T07:59:12.833Z,25.95
2022-08-14T08:01:48.475Z,25.80
2022-08-14T08:04:24.228Z,26.02
2022-08-14T08:06:53.244Z,25.67
2022-08-14T08:09:24.061Z,25.53
2022-08-14T08:11:54.440Z,25.30
2022-08-14T08:14:25.345Z,26.02
2022-08-14T08:16:55.101Z,25.97
2022-08-14T08:19:22.573Z,25.63
2022-08-14T08:21:50.048Z,26.42
2022-08-14T08:24:20.948Z,26.58
2022-08-14T08:26:50.397Z,25.68
2022-08-14T08:29:24.949Z,25.94
2022-08-14T08:31:56.748Z,25.33
2022-08-14T08:34:29.405Z,26.78
2022-08-14T08:36:58.597Z,25.53
2022-08-14T08:39:30.743Z,25.12
2022-08-14T08:42:10.248Z,25.96
2022-08-14T08:44:37.519Z,25.29
2022-08-14T08:47:06.784Z,25.58
2022-08-14T08:49:48.124Z,25.90
2022-08-14T08:52:31.302Z,25.74
2022-08-14T08:55:10.697Z,25.00
2022-08-14T08:57:41.237Z,25.12
2022-08-14T09:00:24.432Z,25.34
2022-08-14T09:02:57.776Z,25.52
2022-08-14T09:05:26.131Z,26.15
2022-08-14T09:07:56.701Z,26.89
2022-08-14T09:10:27.093Z,25.96
2022-08-14T09:12:56.363Z,25.94
2022-08-14T09:15:24.214Z,25.64
2022-08-14T09:17:52.052Z,25.64
2022-08-14T09:20:26.244Z,25.34
2022-08-14T09:22:58.513Z,25.81
2022-08-14T09:26:00.141Z,25.91
2022-08-14T09:28:14.355Z,26.38
2022-08-14T09:30:44.086Z,25.88
2022-08-14T09:33:17.304Z,26.47
2022-08-14T09:36:13.779Z,26.32
2022-08-14T09:38:46.851Z,26.85
2022-08-14T09:42:21.252Z,27.01
2022-08-14T09:44:39.189Z,26.61
2022-08-14T09:47:10.967Z,26.34
2022-08-14T09:49:42.889Z,25.98
2022-08-14T09:52:32.630Z,26.06
2022-08-14T09:55:02.820Z,27.08
2022-08-14T09:57:33.656Z,26.24
2022-08-14T10:00:12.050Z,26.82
2022-08-14T10:03:05.600Z,26.27
2022-08-14T10:05:34.419Z,26.20
2022-08-14T10:08:16.354Z,26.23
2022-08-14T10:11:02.372Z,26.18
2022-08-14T10:13:43.139Z,26.27
2022-08-14T10:16:25.943Z,26.41
2022-08-14T10:19:21.340Z,26.76
2022-08-14T10:23:13.696Z,26.94
2022-08-14T10:24:50.814Z,27.20
2022-08-14T10:27:19.871Z,27.00
2022-08-14T10:30:12.242Z,26.81
2022-08-14T10:32:51.258Z,26.23
2022-08-14T10:35:23.053Z,26.54
2022-08-14T10:37:51.488Z,26.82
2022-08-14T10:40:43.742Z,26.36
2022-08-14T10:43:31.933Z,27.37
2022-08-14T10:46:21.724Z,26.96
2022-08-14T10:48:56.728Z,26.95
2022-08-14T10:51:30.329Z,26.58
2022-08-14T10:54:25.971Z,26.40
2022-08-14T10:56:53.278Z,26.93
2022-08-14T10:59:22.323Z,27.08
2022-08-14T11:01:50.862Z,28.08
2022-08-14T11:04:20.459Z,27.38
2022-08-14T11:06:54.082Z,28.35
2022-08-14T11:09:21.744Z,26.61
2022-08-14T11:11:55.393Z,28.48
2022-08-14T11:14:26.609Z,27.59
2022-08-14T11:16:54.396Z,26.62
2022-08-14T11:19:24.353Z,26.71
2022-08-14T11:21:56.098Z,26.79
2022-08-14T11:24:50.517Z,26.20
2022-08-14T11:27:16.912Z,26.65
2022-08-14T11:29:48.368Z,26.32
2022-08-14T11:32:20.384Z,26.19
2022-08-14T11:34:47.793Z,25.71
2022-08-14T11:37:18.233Z,26.17
2022-08-14T11:39:51.386Z,25.75
2022-08-14T11:42:58.433Z,26.78
2022-08-14T11:45:17.040Z,26.34
2022-08-14T11:48:12.816Z,26.50
2022-08-14T11:50:37.905Z,25.91
2022-08-14T11:53:07.662Z,26.35
2022-08-14T11:55:40.095Z,26.77
2022-08-14T11:58:10.780Z,26.82
2022-08-14T12:00:53.797Z,25.84
2022-08-14T12:03:37.622Z,27.23
2022-08-14T12:06:28.477Z,27.09
2022-08-14T12:09:00.775Z,28.54
2022-08-14T12:11:38.384Z,28.69
2022-08-14T12:14:13.456Z,28.68
2022-08-14T12:17:12.868Z,27.70
2022-08-14T12:19:45.970Z,27.45
2022-08-14T12:22:29.869Z,27.98
2022-08-14T12:24:58.124Z,28.20
2022-08-14T12:27:41.243Z,28.11
2022-08-14T12:30:10.082Z,27.63
2022-08-14T12:32:40.697Z,27.14
2022-08-14T12:35:10.675Z,27.96
2022-08-14T12:37:40.043Z,28.18
2022-08-14T12:40:15.676Z,27.53
2022-08-14T12:42:53.729Z,29.08
2022-08-14T12:45:30.746Z,28.59
2022-08-14T12:48:21.493Z,28.76
2022-08-14T12:50:53.924Z,27.92
2022-08-14T12:53:22.059Z,27.85
2022-08-14T12:56:18.637Z,27.12
2022-08-14T12:58:52.392Z,28.05
2022-08-14T13:01:21.478Z,27.22
2022-08-14T13:03:51.781Z,27.30
2022-08-14T13:06:20.559Z,27.13
2022-08-14T13:08:53.249Z,27.91
2022-08-14T13:11:24.143Z,27.81
2022-08-14T13:13:56.524Z,28.00
2022-08-14T13:16:33.746Z,27.82
2022-08-14T13:19:11.022Z,27.33
2022-08-14T13:21:58.437Z,27.46
2022-08-14T13:24:27.634Z,28.10
2022-08-14T13:26:58.434Z,28.25
2022-08-14T13:29:29.753Z,27.78
2022-08-14T13:31:59.008Z,27.98
2022-08-14T13:34:29.974Z,27.49
2022-08-14T13:37:03.975Z,27.58
2022-08-14T13:39:36.417Z,28.08
2022-08-14T13:42:10.915Z,28.35
2022-08-14T13:44:45.240Z,28.48
2022-08-14T13:47:14.838Z,28.57
2022-08-14T13:49:57.793Z,28.15
2022-08-14T13:52:51.714Z,28.76
2022-08-14T13:55:15.682Z,28.12
2022-08-14T13:57:49.877Z,27.61
2022-08-14T14:00:35.989Z,27.73
2022-08-14T14:03:20.887Z,28.34
2022-08-14T14:05:54.509Z,28.42
2022-08-14T14:08:43.315Z,27.96
2022-08-14T14:11:14.185Z,27.39
2022-08-14T14:13:48.572Z,27.76
2022-08-14T14:16:26.661Z,27.49
2022-08-14T14:19:06.827Z,27.34
2022-08-14T14:21:37.477Z,28.17
2022-08-14T14:24:06.259Z,29.09
2022-08-14T14:26:36.090Z,28.06
2022-08-14T14:29:06.401Z,28.79
2022-08-14T14:31:36.483Z,29.09
2022-08-14T14:34:19.920Z,29.03
2022-08-14T14:36:57.609Z,29.61
2022-08-14T14:39:26.834Z,28.87
2022-08-14T14:41:59.487Z,29.05
2022-08-14T14:44:35.975Z,28.88
2022-08-14T14:47:03.546Z,29.11
2022-08-14T14:49:51.608Z,28.19
2022-08-14T14:52:27.568Z,28.63
2022-08-14T14:54:58.459Z,29.24
2022-08-14T14:57:34.794Z,28.83
2022-08-14T15:00:21.499Z,28.49
2022-08-14T15:02:51.533Z,28.26
2022-08-14T15:05:20.183Z,28.75
2022-08-14T15:07:48.319Z,28.59
2022-08-14T15:10:27.739Z,28.88
2022-08-14T15:13:00.182Z,29.09
2022-08-14T15:15:32.729Z,29.93
2022-08-14T15:18:01.030Z,28.94
2022-08-14T15:20:31.458Z,29.26
2022-08-14T15:23:12.004Z,28.99
2022-08-14T15:25:41.075Z,29.03
2022-08-14T15:28:12.703Z,29.48
2022-08-14T15:30:41.328Z,28.25
2022-08-14T15:33:09.357Z,28.22
2022-08-14T15:35:37.959Z,28.15
2022-08-14T15:38:12.402Z,28.88
2022-08-14T15:40:51.233Z,29.35
2022-08-14T15:43:27.197Z,29.55
2022-08-14T15:45:56.693Z,29.82
2022-08-14T15:48:24.009Z,29.58
2022-08-14T15:50:51.871Z,29.96
2022-08-14T15:53:22.429Z,29.43
2022-08-14T15:55:53.041Z,29.69
2022-08-14T15:58:21.711Z,29.20
2022-08-14T16:01:07.770Z,28.94
2022-08-14T16:03:40.932Z,29.61
2022-08-14T16:06:15.329Z,30.33
2022-08-14T16:08:58.511Z,30.12
2022-08-14T16:11:28.842Z,30.63
2022-08-14T16:14:01.116Z,30.77
2022-08-14T16:16:49.498Z,30.69
2022-08-14T16:19:18.395Z,30.98
2022-08-14T16:22:01.170Z,30.39
2022-08-14T16:24:33.520Z,30.49
2022-08-14T16:27:01.666Z,30.57
2022-08-14T16:29:33.164Z,30.68
2022-08-14T16:32:33.321Z,30.07
2022-08-14T16:34:54.879Z,29.79
2022-08-14T16:37:23.552Z,29.58
2022-08-14T16:40:02.221Z,29.76
2022-08-14T16:43:02.888Z,29.60
2022-08-14T16:45:23.455Z,29.33
2022-08-14T16:47:50.896Z,29.24
2022-08-14T16:50:43.623Z,28.87
2022-08-14T16:53:07.335Z,28.99
2022-08-14T16:55:35.313Z,28.71
2022-08-14T16:58:21.448Z,29.06
2022-08-14T17:00:54.662Z,29.29
2022-08-14T17:03:21.963Z,29.06
2022-08-14T17:05:49.463Z,28.90
2022-08-14T17:08:32.583Z,29.31
2022-08-14T17:11:11.003Z,28.91
2022-08-14T17:13:58.229Z,29.49
2022-08-14T17:16:37.064Z,28.73
2022-08-14T17:19:13.955Z,29.07
2022-08-14T17:21:46.872Z,29.13
2022-08-14T17:24:57.288Z,28.94
2022-08-14T17:27:05.576Z,28.93
2022-08-14T17:29:34.395Z,29.19
2022-08-14T17:32:28.336Z,28.79
2022-08-14T17:37:55.797Z,29.07
2022-08-14T17:40:35.401Z,29.24
2022-08-14T17:43:03.508Z,29.00
2022-08-14T17:45:41.302Z,28.99
2022-08-14T17:49:10.158Z,29.01
2022-08-14T17:51:24.249Z,29.75
2022-08-14T17:54:02.654Z,29.51
2022-08-14T17:56:34.020Z,28.88
2022-08-14T17:59:05.666Z,29.03
2022-08-14T18:01:35.935Z,28.56
2022-08-14T18:04:20.111Z,28.66
2022-08-14T18:06:57.772Z,28.64
2022-08-14T18:09:36.893Z,29.02
2022-08-14T18:12:08.497Z,28.85
2022-08-14T18:14:49.041Z,28.55
2022-08-14T18:17:23.731Z,28.37
2022-08-14T18:19:51.427Z,27.89
2022-08-14T18:22:32.277Z,28.51
2022-08-14T18:25:18.327Z,28.30
2022-08-14T18:27:51.377Z,27.61
2022-08-14T18:30:33.482Z,27.76
2022-08-14T18:33:15.956Z,27.16
2022-08-14T18:35:59.764Z,27.57
2022-08-14T18:38:42.999Z,27.57
2022-08-14T18:41:36.353Z,27.11
2022-08-14T18:44:10.368Z,27.43
2022-08-14T18:47:00.421Z,27.31
2022-08-14T18:49:33.592Z,27.45
2022-08-14T18:52:13.403Z,27.13
2022-08-14T18:54:48.667Z,27.17
2022-08-14T18:57:27.228Z,26.83
2022-08-14T19:00:33.833Z,26.88
2022-08-14T19:03:03.380Z,26.80
2022-08-14T19:05:47.666Z,26.76
2022-08-14T19:08:28.206Z,26.91
2022-08-14T19:10:59.373Z,26.89
2022-08-14T19:13:48.090Z,26.94
2022-08-14T19:16:22.992Z,26.81
2022-08-14T19:19:00.017Z,27.23
2022-08-14T19:21:32.052Z,27.08
2022-08-14T19:24:27.875Z,27.54
2022-08-14T19:27:12.832Z,27.27
2022-08-14T19:29:40.408Z,27.24
2022-08-14T19:32:28.189Z,26.97
2022-08-14T19:34:55.695Z,26.82
2022-08-14T19:37:55.401Z,26.92
2022-08-14T19:40:33.298Z,26.60
2022-08-14T19:43:06.470Z,26.48
2022-08-14T19:45:34.649Z,26.93
2022-08-14T19:48:03.275Z,26.91
2022-08-14T19:50:40.675Z,26.62
2022-08-14T19:53:16.558Z,26.82
2022-08-14T19:55:56.517Z,26.86
2022-08-14T19:58:28.059Z,26.67
2022-08-14T20:00:58.199Z,26.68
2022-08-14T20:03:25.800Z,26.66
2022-08-14T20:06:13.295Z,26.55
2022-08-14T20:11:02.524Z,27.14
2022-08-14T20:12:00.120Z,26.79
2022-08-14T20:14:29.711Z,26.38
2022-08-14T20:17:06.382Z,26.78
2022-08-14T20:19:38.110Z,26.58
2022-08-14T20:22:37.579Z,26.38
2022-08-14T20:25:10.796Z,26.56
2022-08-14T20:27:44.435Z,27.00
2022-08-14T20:30:35.437Z,26.90
2022-08-14T20:33:07.461Z,26.97
2022-08-14T20:35:43.401Z,26.79
2022-08-14T20:38:30.474Z,26.81
2022-08-14T20:41:01.086Z,27.27
2022-08-14T20:43:48.293Z,27.36
2022-08-14T20:46:29.991Z,26.92
2022-08-14T20:48:59.610Z,26.94
2022-08-14T20:51:58.690Z,26.96
2022-08-14T20:54:34.347Z,26.88
2022-08-14T20:57:21.244Z,27.26
2022-08-14T20:59:56.661Z,27.20
2022-08-14T21:02:29.621Z,27.04
2022-08-14T21:04:58.721Z,26.85
2022-08-14T21:07:36.340Z,27.86
2022-08-14T21:10:36.429Z,27.03
2022-08-14T21:13:26.373Z,27.10
2022-08-14T21:15:57.168Z,27.60
2022-08-14T21:18:30.599Z,27.38
2022-08-14T21:21:00.939Z,27.19
2022-08-14T21:23:54.477Z,27.47
2022-08-14T21:26:51.353Z,26.73
2022-08-14T21:29:16.054Z,27.12
2022-08-14T21:31:56.081Z,27.46
2022-08-14T21:34:31.679Z,27.17
2022-08-14T21:37:06.425Z,27.62
2022-08-14T21:39:37.261Z,27.63
2022-08-14T21:42:06.203Z,27.11
2022-08-14T21:44:42.715Z,27.00
2022-08-14T21:47:11.478Z,27.21
2022-08-14T21:49:40.176Z,27.55
2022-08-14T21:52:49.847Z,26.93
2022-08-14T21:55:00.446Z,27.83
2022-08-14T21:57:55.883Z,27.17
2022-08-14T22:00:34.630Z,27.63
2022-08-14T22:03:08.945Z,27.37
2022-08-14T22:05:38.736Z,27.45
2022-08-14T22:08:06.702Z,27.55
2022-08-14T22:10:34.782Z,27.77
2022-08-14T22:13:02.224Z,27.90
2022-08-14T22:15:30.302Z,27.70
2022-08-14T22:17:58.545Z,27.75
2022-08-14T22:20:28.881Z,28.73
2022-08-14T22:22:57.569Z,28.33
2022-08-14T22:25:33.290Z,28.02
2022-08-14T22:28:04.551Z,28.12
2022-08-14T22:30:31.855Z,27.88
2022-08-14T22:33:00.229Z,28.03
2022-08-14T22:35:29.258Z,28.56
2022-08-14T22:38:34.726Z,28.22
2022-08-14T22:41:03.512Z,28.25
2022-08-14T22:43:35.289Z,28.23
2022-08-14T22:46:14.425Z,28.30
2022-08-14T22:48:44.463Z,28.55
2022-08-14T22:51:13.531Z,28.04
2022-08-14T22:53:40.969Z,28.42
2022-08-14T22:56:20.836Z,28.66
2022-08-14T22:58:53.678Z,28.10
2022-08-14T23:01:24.549Z,28.34
2022-08-14T23:04:12.041Z,28.21
2022-08-14T23:07:02.077Z,28.37
2022-08-14T23:09:35.846Z,28.73
2022-08-14T23:12:05.705Z,28.56
2022-08-14T23:14:53.039Z,28.85
2022-08-14T23:17:22.736Z,29.10
2022-08-14T23:19:56.443Z,29.25
2022-08-14T23:22:26.200Z,29.19
2022-08-14T23:24:56.697Z,28.79
2022-08-14T23:27:31.893Z,28.79
2022-08-14T23:30:31.723Z,29.20
2022-08-14T23:33:03.024Z,29.21
2022-08-14T23:35:33.227Z,29.11
2022-08-14T23:38:02.224Z,29.09
2022-08-14T23:40:30.271Z,29.31
2022-08-14T23:43:09.529Z,29.25
2022-08-14T23:45:39.375Z,28.57
2022-08-14T23:48:12.572Z,29.07
2022-08-14T23:50:40.911Z,28.95
2022-08-14T23:53:48.134Z,29.41
2022-08-14T23:56:18.014Z,29.36
2022-08-14T23:58:49.427Z,29.58
